Time;durP1;ratioP1;P1;durP2;ratioP2;P2;SDS_P1;SDS_P2;PMS_P1;PMS_P2;Temp;Humidity;BMP_temperature;BMP_pressure;BME280_temperature;BME280_humidity;BME280_pressure;Samples;Min_cycle;Max_cycle;Signal;HPM_P1;HPM_P2
2023/04/26 05:01:18;;;;;;;18.30;11.35;;;5.40;99.90;;;;;;5911880;23;20109;-70
2023/04/26 05:03:49;;;;;;;22.48;11.57;;;5.50;99.90;;;;;;4960873;29;20046;-70
2023/04/26 05:06:14;;;;;;;21.45;12.45;;;5.60;99.90;;;;;;4947377;29;20039;-73
2023/04/26 05:08:40;;;;;;;19.67;11.55;;;5.60;99.90;;;;;;4947194;29;20026;-71
2023/04/26 05:11:07;;;;;;;23.67;12.80;;;5.70;99.90;;;;;;4947836;29;20024;-72
2023/04/26 05:13:33;;;;;;;22.08;11.43;;;5.80;99.90;;;;;;4948404;29;20103;-71
2023/04/26 05:15:59;;;;;;;17.85;10.57;;;5.90;99.90;;;;;;4947514;29;20023;-71
2023/04/26 05:18:24;;;;;;;15.32;9.23;;;6.00;99.90;;;;;;4947445;29;20309;-71
2023/04/26 05:20:50;;;;;;;18.00;10.00;;;6.20;99.90;;;;;;4948077;29;20027;-71
2023/04/26 05:23:16;;;;;;;15.88;8.77;;;6.30;99.90;;;;;;4947582;29;20075;-69
2023/04/26 05:25:42;;;;;;;15.82;8.85;;;6.40;99.90;;;;;;4948398;29;20027;-70
2023/04/26 05:28:27;;;;;;;16.63;9.23;;;6.50;99.90;;;;;;4948584;29;20044;-70
2023/04/26 05:31:16;;;;;;;17.35;8.93;;;6.60;99.90;;;;;;4940621;29;20046;-69
2023/04/26 05:33:57;;;;;;;17.45;8.60;;;6.70;99.90;;;;;;4946855;29;20348;-70
2023/04/26 05:36:29;;;;;;;16.45;8.65;;;6.80;99.90;;;;;;4948546;29;20035;-69
2023/04/26 05:38:54;;;;;;;15.98;8.15;;;6.80;99.90;;;;;;4946614;29;20280;-70
2023/04/26 05:41:20;;;;;;;18.42;8.15;;;6.90;99.90;;;;;;4948468;29;20039;-70
2023/04/26 05:43:46;;;;;;;19.42;8.57;;;6.90;99.90;;;;;;4946705;29;20036;-70
2023/04/26 05:46:12;;;;;;;31.75;9.27;;;7.00;99.90;;;;;;4946792;29;20178;-69
2023/04/26 05:48:39;;;;;;;30.35;9.68;;;7.10;99.90;;;;;;4946491;29;20030;-69
2023/04/26 05:51:05;;;;;;;26.42;9.80;;;7.10;99.90;;;;;;4947970;29;20036;-70
2023/04/26 05:53:32;;;;;;;22.95;10.63;;;7.10;99.90;;;;;;4946759;29;20321;-70
2023/04/26 05:55:58;;;;;;;22.20;8.80;;;7.10;99.90;;;;;;4945945;29;20036;-70
2023/04/26 05:58:24;;;;;;;20.23;9.93;;;7.20;99.90;;;;;;4951741;29;20102;-70
2023/04/26 06:00:50;;;;;;;16.90;9.52;;;7.30;99.90;;;;;;4949578;29;20023;-70
2023/04/26 06:03:18;;;;;;;15.05;9.68;;;7.40;99.90;;;;;;4931977;29;20107;-70
2023/04/26 06:05:43;;;;;;;18.77;10.70;;;7.50;99.90;;;;;;4930398;29;20024;-70
2023/04/26 06:08:10;;;;;;;18.88;10.75;;;7.60;99.90;;;;;;4930098;29;20027;-70
2023/04/26 06:10:39;;;;;;;16.65;10.20;;;7.70;99.90;;;;;;4947678;29;20024;-70
2023/04/26 06:13:05;;;;;;;15.30;10.05;;;7.90;99.90;;;;;;4919985;29;20028;-71
2023/04/26 06:15:34;;;;;;;17.35;9.60;;;8.00;99.90;;;;;;4925172;29;20044;-70
2023/04/26 06:18:00;;;;;;;17.63;10.05;;;8.30;99.90;;;;;;4930396;29;20140;-70
2023/04/26 06:20:26;;;;;;;19.02;11.02;;;8.50;99.90;;;;;;4930543;29;20043;-70
2023/04/26 06:22:52;;;;;;;18.55;10.27;;;8.60;99.90;;;;;;4929505;29;20038;-71
2023/04/26 06:25:18;;;;;;;16.45;10.43;;;8.70;99.90;;;;;;4943697;29;20040;-70
2023/04/26 06:27:44;;;;;;;15.35;9.65;;;8.80;99.90;;;;;;4929844;29;20102;-71
2023/04/26 06:30:10;;;;;;;16.98;9.52;;;8.90;99.90;;;;;;4930769;29;20209;-70
2023/04/26 06:32:40;;;;;;;15.43;8.13;;;9.00;99.90;;;;;;4914026;29;20028;-70
2023/04/26 06:35:06;;;;;;;11.63;7.03;;;9.00;99.90;;;;;;4947447;29;20114;-70
2023/04/26 06:37:32;;;;;;;14.57;7.35;;;9.00;99.90;;;;;;4915070;29;20043;-71
2023/04/26 06:39:58;;;;;;;16.98;6.97;;;9.00;99.90;;;;;;4911087;29;20310;-70
2023/04/26 06:42:24;;;;;;;14.77;7.07;;;9.00;99.90;;;;;;4912518;29;20326;-71
2023/04/26 06:45:06;;;;;;;13.27;7.88;;;9.00;99.90;;;;;;4930190;29;20051;-71
2023/04/26 06:47:33;;;;;;;12.32;7.45;;;8.90;99.90;;;;;;4930145;29;20047;-71
2023/04/26 06:49:59;;;;;;;14.45;7.90;;;9.00;99.90;;;;;;4946726;29;20080;-70
2023/04/26 06:52:25;;;;;;;11.48;6.03;;;9.10;99.90;;;;;;4934428;29;20032;-71
2023/04/26 06:54:51;;;;;;;10.30;5.22;;;9.20;99.90;;;;;;4939997;29;20269;-71
2023/04/26 06:57:17;;;;;;;10.30;5.00;;;9.20;99.90;;;;;;4933701;29;20032;-71
2023/04/26 06:59:42;;;;;;;11.35;4.68;;;9.40;99.90;;;;;;4929475;29;20232;-71
2023/04/26 07:02:08;;;;;;;7.85;4.55;;;9.40;99.90;;;;;;4943479;29;20044;-70
2023/04/26 07:04:34;;;;;;;9.98;4.70;;;9.50;99.30;;;;;;4946375;29;20042;-71
2023/04/26 07:07:00;;;;;;;9.38;4.88;;;9.50;98.70;;;;;;4946018;29;20052;-70
2023/04/26 07:09:25;;;;;;;10.80;5.57;;;9.40;98.40;;;;;;4946560;29;20035;-71
2023/04/26 07:11:51;;;;;;;9.55;5.32;;;9.30;98.30;;;;;;4946198;29;20043;-69
2023/04/26 07:14:17;;;;;;;11.80;5.18;;;9.30;98.80;;;;;;4946417;29;20336;-71
2023/04/26 07:16:43;;;;;;;10.13;4.45;;;9.30;98.40;;;;;;4945867;29;20039;-70
2023/04/26 07:19:09;;;;;;;8.40;5.22;;;9.30;98.40;;;;;;4944198;29;20209;-69
2023/04/26 07:21:36;;;;;;;11.00;4.97;;;9.40;98.20;;;;;;4927426;29;20250;-71
2023/04/26 07:24:02;;;;;;;6.75;4.50;;;9.50;98.30;;;;;;4927275;29;20043;-70
2023/04/26 07:26:27;;;;;;;11.20;5.00;;;9.70;98.20;;;;;;4927282;29;20099;-71
2023/04/26 07:28:53;;;;;;;11.63;4.03;;;9.90;96.90;;;;;;4926749;29;20095;-70
2023/04/26 07:31:19;;;;;;;9.45;4.70;;;10.10;95.60;;;;;;4927189;29;20039;-72
2023/04/26 07:33:45;;;;;;;8.82;4.60;;;10.10;95.10;;;;;;4933345;29;20044;-71
2023/04/26 07:36:11;;;;;;;11.57;4.97;;;10.20;95.10;;;;;;4910554;29;20477;-70
2023/04/26 07:38:36;;;;;;;7.25;3.90;;;9.90;95.20;;;;;;4926096;29;20099;-71
2023/04/26 07:41:03;;;;;;;9.00;5.05;;;9.80;94.90;;;;;;4926482;29;20036;-73
2023/04/26 07:43:30;;;;;;;9.02;4.57;;;9.60;95.30;;;;;;4926123;29;20321;-70
2023/04/26 07:46:00;;;;;;;7.68;4.82;;;9.60;95.80;;;;;;4925649;29;20036;-70
2023/04/26 07:48:25;;;;;;;9.38;4.47;;;9.60;96.00;;;;;;4926051;29;20099;-70
2023/04/26 07:50:51;;;;;;;10.30;4.78;;;9.70;96.60;;;;;;4938634;29;20027;-70
2023/04/26 07:53:17;;;;;;;6.93;3.88;;;10.00;95.60;;;;;;4927482;29;20036;-70
2023/04/26 07:55:42;;;;;;;9.18;4.50;;;10.20;94.50;;;;;;4926351;29;20299;-70
2023/04/26 07:58:11;;;;;;;8.43;3.80;;;10.30;93.90;;;;;;4929611;29;20329;-74
2023/04/26 08:00:37;;;;;;;;;;;10.60;94.20;;;;;;4927562;29;20032;-70
2023/04/26 08:03:04;;;;;;;8.48;4.07;;;10.80;93.50;;;;;;4945185;29;19989;-71
2023/04/26 08:05:29;;;;;;;9.38;3.88;;;11.00;91.70;;;;;;4945545;29;20028;-70
2023/04/26 08:07:55;;;;;;;6.82;3.50;;;11.00;91.40;;;;;;4945257;29;20385;-70
2023/04/26 08:10:21;;;;;;;9.05;3.83;;;11.20;90.90;;;;;;4946209;29;20019;-70
2023/04/26 08:12:47;;;;;;;10.20;3.70;;;11.10;90.70;;;;;;4944985;29;20214;-70
2023/04/26 08:15:12;;;;;;;9.13;3.78;;;10.90;90.80;;;;;;4945563;29;20040;-70
2023/04/26 08:17:38;;;;;;;9.43;3.75;;;11.00;91.20;;;;;;4945209;29;20031;-70
2023/04/26 08:20:04;;;;;;;7.18;3.72;;;11.20;91.40;;;;;;4945602;29;20044;-70
2023/04/26 08:22:30;;;;;;;8.05;4.28;;;11.40;90.80;;;;;;4945653;29;20043;-70
2023/04/26 08:24:56;;;;;;;7.28;3.40;;;11.30;90.40;;;;;;4945162;29;20059;-70
2023/04/26 08:27:22;;;;;;;8.65;3.60;;;11.40;90.60;;;;;;4945765;29;20091;-69
2023/04/26 08:29:48;;;;;;;5.65;3.38;;;11.40;90.80;;;;;;4944813;29;20032;-70
2023/04/26 08:32:13;;;;;;;11.75;4.18;;;11.40;89.60;;;;;;4945522;29;20027;-69
2023/04/26 08:34:39;;;;;;;5.38;3.22;;;11.50;89.60;;;;;;4927318;29;20042;-69
2023/04/26 08:37:09;;;;;;;7.05;3.67;;;11.80;89.50;;;;;;4928436;29;20036;-70
2023/04/26 08:39:34;;;;;;;8.20;3.88;;;12.20;88.50;;;;;;4926697;29;20040;-70
2023/04/26 08:42:13;;;;;;;7.32;3.80;;;12.40;87.30;;;;;;4925938;29;20056;-71
2023/04/26 08:44:41;;;;;;;7.13;3.67;;;12.70;87.30;;;;;;4925566;29;20036;-70
2023/04/26 08:47:21;;;;;;;7.38;3.75;;;13.00;86.50;;;;;;4926507;29;20040;-71
2023/04/26 08:49:58;;;;;;;8.48;3.67;;;12.80;84.80;;;;;;4932503;29;20358;-71
2023/04/26 08:52:27;;;;;;;9.52;3.53;;;12.70;85.50;;;;;;4945695;29;20036;-69
2023/04/26 08:54:53;;;;;;;8.18;3.78;;;12.90;84.50;;;;;;4927693;29;20042;-72
2023/04/26 08:57:20;;;;;;;6.95;3.35;;;12.90;84.80;;;;;;4945234;29;20352;-71
2023/04/26 08:59:47;;;;;;;9.43;3.55;;;12.70;84.50;;;;;;4925563;29;20050;-72
2023/04/26 09:02:20;;;;;;;9.35;3.88;;;12.60;84.80;;;;;;4939105;29;20112;-69
2023/04/26 09:04:47;;;;;;;7.28;3.28;;;12.20;85.20;;;;;;4944448;29;20070;-69
2023/04/26 09:07:32;;;;;;;8.02;4.18;;;12.20;86.20;;;;;;4944936;29;20063;-71
2023/04/26 09:09:59;;;;;;;6.97;3.72;;;12.40;84.80;;;;;;4944561;29;20043;-70
2023/04/26 09:12:25;;;;;;;6.95;3.28;;;12.60;85.60;;;;;;4944707;29;20091;-70
2023/04/26 09:14:52;;;;;;;9.90;4.38;;;12.80;84.90;;;;;;4944276;29;20277;-69
2023/04/26 09:17:32;;;;;;;6.63;3.38;;;13.00;82.80;;;;;;4944959;29;20044;-71
2023/04/26 09:19:59;;;;;;;9.80;4.00;;;13.10;84.60;;;;;;4944573;29;20034;-70
2023/04/26 09:22:35;;;;;;;8.57;4.10;;;13.10;84.70;;;;;;4944873;29;20046;-69
2023/04/26 09:25:02;;;;;;;6.32;3.83;;;13.00;84.30;;;;;;4944499;29;20270;-71
2023/04/26 09:27:32;;;;;;;9.07;3.10;;;12.90;83.80;;;;;;4945108;29;20031;-69
2023/04/26 09:30:08;;;;;;;12.68;3.92;;;12.70;83.50;;;;;;4944418;29;20047;-69
2023/04/26 09:32:57;;;;;;;7.72;3.97;;;12.80;83.80;;;;;;4943842;29;20043;-69
2023/04/26 09:35:27;;;;;;;8.75;4.40;;;12.90;84.70;;;;;;4925952;29;20040;-69
2023/04/26 09:38:02;;;;;;;5.97;3.90;;;13.10;85.20;;;;;;4942971;29;20313;-69
2023/04/26 09:40:30;;;;;;;8.20;4.20;;;13.20;84.10;;;;;;4945078;29;20036;-69
2023/04/26 09:43:00;;;;;;;6.63;3.70;;;13.30;84.60;;;;;;4940498;29;20092;-69
2023/04/26 09:45:27;;;;;;;7.93;4.38;;;13.30;84.40;;;;;;4935728;29;20439;-69
2023/04/26 09:47:54;;;;;;;7.68;4.00;;;13.40;82.40;;;;;;4947202;29;20058;-70
2023/04/26 09:50:30;;;;;;;9.75;3.95;;;13.50;82.00;;;;;;4937617;29;20040;-70
2023/04/26 09:52:56;;;;;;;6.63;4.32;;;13.60;81.50;;;;;;4945520;29;20076;-69
2023/04/26 09:55:27;;;;;;;9.07;4.03;;;13.60;80.90;;;;;;4947795;29;20063;-70
2023/04/26 09:57:53;;;;;;;10.15;3.65;;;13.70;81.30;;;;;;4942824;29;20103;-70
2023/04/26 10:00:20;;;;;;;7.03;3.33;;;13.70;81.20;;;;;;4928910;29;20040;-72
2023/04/26 10:02:46;;;;;;;7.72;3.53;;;13.50;80.60;;;;;;4945749;29;20067;-71
2023/04/26 10:05:11;;;;;;;5.28;3.40;;;13.70;80.60;;;;;;4947807;29;20051;-70
2023/04/26 10:07:40;;;;;;;7.75;3.83;;;13.80;80.10;;;;;;4947492;29;20031;-71
2023/04/26 10:10:07;;;;;;;9.65;3.22;;;13.60;80.00;;;;;;4947730;29;20218;-72
2023/04/26 10:12:33;;;;;;;8.40;3.47;;;13.60;80.50;;;;;;4947603;29;20254;-71
2023/04/26 10:15:00;;;;;;;7.75;3.10;;;13.70;80.10;;;;;;4939130;29;20052;-70
2023/04/26 10:17:26;;;;;;;8.98;3.67;;;14.00;80.80;;;;;;4928872;29;20251;-71
2023/04/26 10:19:56;;;;;;;6.50;3.20;;;14.30;78.60;;;;;;4911309;29;20080;-70
2023/04/26 10:22:30;;;;;;;7.00;3.13;;;14.40;79.70;;;;;;4928527;29;20032;-71
2023/04/26 10:24:55;;;;;;;6.95;3.80;;;14.40;78.40;;;;;;4933404;29;20071;-69
2023/04/26 10:27:43;;;;;;;10.95;3.40;;;14.60;78.80;;;;;;4947353;29;20027;-69
2023/04/26 10:30:15;;;;;;;5.88;3.45;;;14.80;79.40;;;;;;4947511;29;20032;-70
2023/04/26 10:32:56;;;;;;;8.32;3.78;;;14.80;77.80;;;;;;4945114;29;20031;-70
2023/04/26 10:35:26;;;;;;;7.10;3.83;;;14.90;76.60;;;;;;4928037;29;20368;-70
2023/04/26 10:38:01;;;;;;;8.85;3.50;;;15.30;76.60;;;;;;4930154;29;20036;-70
2023/04/26 10:40:38;;;;;;;6.18;2.78;;;15.70;75.70;;;;;;4928261;29;20369;-70
2023/04/26 10:43:15;;;;;;;6.20;2.90;;;16.10;75.40;;;;;;4933416;29;20273;-71
2023/04/26 10:45:48;;;;;;;6.63;3.07;;;16.20;73.70;;;;;;4946728;29;20107;-71
2023/04/26 10:48:14;;;;;;;6.45;3.38;;;16.20;72.80;;;;;;4947193;29;20436;-70
2023/04/26 10:50:59;;;;;;;8.30;3.63;;;16.20;72.30;;;;;;4946739;29;20031;-72
2023/04/26 10:53:25;;;;;;;6.88;3.20;;;15.80;72.80;;;;;;4946544;29;20055;-70
2023/04/26 10:55:51;;;;;;;9.23;3.17;;;16.00;72.10;;;;;;4946316;29;20039;-69
2023/04/26 10:58:31;;;;;;;8.02;2.97;;;16.30;74.40;;;;;;4939682;29;20058;-69
2023/04/26 11:01:17;;;;;;;5.93;2.60;;;16.10;71.30;;;;;;4930783;29;20094;-69
2023/04/26 11:04:05;;;;;;;6.95;2.58;;;16.00;69.80;;;;;;4946461;29;20046;-69
2023/04/26 11:06:53;;;;;;;5.95;2.35;;;16.00;70.50;;;;;;4946767;29;20028;-69
2023/04/26 11:09:38;;;;;;;;;;;16.10;71.00;;;;;;4946895;29;20318;-69
2023/04/26 11:12:05;;;;;;;7.28;3.08;;;16.30;70.60;;;;;;4946727;29;20176;-70
2023/04/26 11:14:34;;;;;;;10.35;3.17;;;16.50;69.80;;;;;;4946449;29;20031;-74
2023/04/26 11:17:07;;;;;;;5.75;3.22;;;16.70;69.70;;;;;;4945763;29;20047;-70
2023/04/26 11:19:33;;;;;;;7.18;2.97;;;16.80;70.70;;;;;;4944933;29;20039;-70
2023/04/26 11:22:00;;;;;;;6.38;2.85;;;16.50;67.90;;;;;;4940128;29;20327;-70
2023/04/26 11:24:27;;;;;;;7.88;2.80;;;16.50;69.50;;;;;;4933763;29;20076;-71
2023/04/26 11:26:53;;;;;;;5.18;2.67;;;17.20;69.10;;;;;;4927918;29;20055;-71
2023/04/26 11:29:20;;;;;;;9.65;2.92;;;17.90;68.70;;;;;;4938167;29;20072;-72
2023/04/26 11:31:56;;;;;;;8.50;2.85;;;18.00;67.30;;;;;;4937752;29;20222;-71
2023/04/26 11:34:35;;;;;;;10.48;2.80;;;17.70;68.00;;;;;;4938450;29;20035;-70
2023/04/26 11:37:05;;;;;;;6.53;2.47;;;17.70;68.20;;;;;;4943073;29;20036;-72
2023/04/26 11:39:31;;;;;;;6.75;3.08;;;17.90;67.40;;;;;;4929322;29;20039;-71
2023/04/26 11:42:08;;;;;;;5.78;3.00;;;18.10;66.90;;;;;;4930633;29;20326;-71
2023/04/26 11:44:36;;;;;;;8.52;2.90;;;18.40;65.50;;;;;;4927112;29;20040;-71
2023/04/26 11:47:04;;;;;;;5.95;2.80;;;19.30;64.60;;;;;;4926752;29;20237;-71
2023/04/26 11:49:31;;;;;;;4.93;2.70;;;19.80;62.20;;;;;;4926932;29;20378;-70
2023/04/26 11:51:57;;;;;;;7.40;2.92;;;19.20;62.60;;;;;;4926571;29;20414;-70
2023/04/26 11:54:27;;;;;;;7.70;2.67;;;20.20;60.80;;;;;;4935167;29;20047;-70
2023/04/26 11:56:53;;;;;;;8.48;2.92;;;21.50;62.50;;;;;;4927213;29;20246;-70
2023/04/26 11:59:26;;;;;;;4.25;2.30;;;23.10;59.10;;;;;;4946056;29;20038;-70
2023/04/26 12:01:54;;;;;;;4.85;2.30;;;23.60;55.50;;;;;;4944668;29;20375;-70
2023/04/26 12:04:28;;;;;;;4.13;2.03;;;23.30;59.00;;;;;;4945774;29;20118;-70
2023/04/26 12:06:54;;;;;;;7.03;3.05;;;23.40;55.90;;;;;;4945132;29;20255;-72
2023/04/26 12:09:25;;;;;;;5.50;2.70;;;23.50;55.50;;;;;;4945858;29;20071;-70
2023/04/26 12:12:01;;;;;;;7.78;2.60;;;24.80;54.70;;;;;;4945432;29;20035;-75
2023/04/26 12:14:31;;;;;;;6.15;2.30;;;24.70;52.30;;;;;;4945745;29;20054;-70
2023/04/26 12:17:00;;;;;;;6.30;2.88;;;24.60;52.80;;;;;;4930643;29;20566;-70
2023/04/26 12:19:26;;;;;;;5.07;2.13;;;24.00;52.90;;;;;;4926412;29;20024;-70
2023/04/26 12:21:53;;;;;;;6.13;2.20;;;23.50;53.10;;;;;;4925910;29;20091;-71
2023/04/26 12:24:33;;;;;;;6.25;2.72;;;23.70;53.60;;;;;;4926622;29;20342;-72
2023/04/26 12:26:59;;;;;;;6.45;2.60;;;24.30;53.40;;;;;;4943200;29;20039;-70
2023/04/26 12:29:27;;;;;;;5.35;2.50;;;25.60;52.10;;;;;;4945658;29;20066;-70
2023/04/26 12:31:53;;;;;;;;;;;25.50;50.30;;;;;;4945829;29;20087;-71
2023/04/26 12:34:19;;;;;;;4.57;2.05;;;26.20;49.60;;;;;;4931086;29;19915;-70
2023/04/26 12:36:45;;;;;;;4.35;1.75;;;26.60;48.40;;;;;;4928572;29;20028;-70
2023/04/26 12:39:12;;;;;;;8.35;2.17;;;26.70;51.10;;;;;;4926442;29;20202;-71
2023/04/26 12:41:39;;;;;;;5.43;1.87;;;26.90;50.30;;;;;;4925773;29;20052;-71
2023/04/26 12:44:06;;;;;;;4.47;2.17;;;25.90;48.40;;;;;;4927185;29;20032;-71
2023/04/26 12:46:32;;;;;;;5.90;2.50;;;25.20;50.30;;;;;;4945441;29;20198;-71
2023/04/26 12:48:58;;;;;;;5.03;2.33;;;24.00;49.60;;;;;;4932484;29;20047;-71
2023/04/26 12:51:24;;;;;;;6.57;2.33;;;23.40;51.80;;;;;;4926408;29;20034;-69
2023/04/26 12:53:49;;;;;;;7.13;2.63;;;23.60;51.90;;;;;;4925637;29;20060;-71
2023/04/26 12:56:15;;;;;;;6.75;2.20;;;24.30;50.90;;;;;;4927532;29;20027;-70
2023/04/26 12:58:41;;;;;;;6.30;2.60;;;25.80;49.50;;;;;;4924344;29;20314;-70
2023/04/26 13:01:08;;;;;;;4.80;1.95;;;26.50;48.90;;;;;;4931121;29;20031;-71
2023/04/26 13:03:34;;;;;;;4.22;1.75;;;26.00;47.60;;;;;;4944827;29;20059;-72
2023/04/26 13:05:59;;;;;;;4.18;2.05;;;25.70;49.30;;;;;;4944889;29;20040;-72
2023/04/26 13:08:25;;;;;;;5.43;2.00;;;26.80;49.90;;;;;;4945229;29;20023;-70
2023/04/26 13:10:51;;;;;;;8.60;2.40;;;28.60;49.40;;;;;;4944602;29;20333;-70
2023/04/26 13:13:16;;;;;;;4.78;2.50;;;28.50;45.90;;;;;;4945259;29;20034;-70
2023/04/26 13:15:42;;;;;;;5.47;2.20;;;27.00;48.40;;;;;;4944468;29;20047;-69
2023/04/26 13:18:08;;;;;;;4.90;2.13;;;26.60;48.50;;;;;;4948231;29;20046;-69
2023/04/26 13:20:35;;;;;;;5.18;2.08;;;26.70;47.30;;;;;;4948561;29;20075;-69
2023/04/26 13:23:00;;;;;;;3.78;1.67;;;27.00;48.10;;;;;;4947913;29;20071;-68
2023/04/26 13:25:26;;;;;;;5.90;2.20;;;28.80;46.30;;;;;;4948708;29;20046;-70
2023/04/26 13:27:53;;;;;;;4.53;2.25;;;29.30;45.00;;;;;;4948237;29;20043;-70
2023/04/26 13:30:19;;;;;;;5.33;2.30;;;28.80;46.00;;;;;;4948293;29;20036;-69
2023/04/26 13:32:45;;;;;;;7.22;2.28;;;27.70;46.30;;;;;;4947187;29;20147;-68
2023/04/26 13:35:11;;;;;;;4.47;2.00;;;28.90;45.90;;;;;;4929694;29;20063;-69
2023/04/26 13:37:37;;;;;;;4.65;1.88;;;29.80;46.80;;;;;;4933464;29;20028;-70
2023/04/26 13:40:03;;;;;;;4.28;2.00;;;30.00;44.80;;;;;;4935750;29;20201;-69
2023/04/26 13:42:29;;;;;;;6.10;2.30;;;28.80;44.60;;;;;;4948781;29;20119;-70
2023/04/26 13:44:55;;;;;;;4.97;2.05;;;27.50;45.10;;;;;;4947444;29;20306;-68
2023/04/26 13:47:20;;;;;;;5.43;2.05;;;26.40;46.40;;;;;;4948225;29;20036;-69
2023/04/26 13:49:46;;;;;;;6.47;2.28;;;26.80;48.10;;;;;;4948032;29;20043;-70
2023/04/26 13:52:12;;;;;;;7.22;2.58;;;27.80;46.00;;;;;;4948404;29;20074;-70
2023/04/26 13:54:41;;;;;;;5.35;2.35;;;28.60;46.10;;;;;;4930806;29;20344;-69
2023/04/26 13:57:07;;;;;;;5.55;2.83;;;28.80;44.50;;;;;;4937705;29;20024;-69
2023/04/26 13:59:33;;;;;;;5.25;2.38;;;27.60;45.10;;;;;;4921355;29;20027;-68
2023/04/26 14:01:59;;;;;;;5.47;2.22;;;26.80;46.30;;;;;;4942233;29;20211;-70
2023/04/26 14:04:25;;;;;;;5.60;2.28;;;27.90;46.10;;;;;;4928858;29;20040;-69
2023/04/26 14:06:51;;;;;;;5.00;2.53;;;27.80;45.60;;;;;;4928517;29;20028;-69
2023/04/26 14:09:17;;;;;;;5.53;2.03;;;27.60;45.50;;;;;;4929094;29;20141;-70
2023/04/26 14:11:43;;;;;;;5.13;2.25;;;27.80;48.40;;;;;;4928522;29;20319;-70
2023/04/26 14:14:09;;;;;;;8.82;2.97;;;28.00;45.30;;;;;;4928722;29;20036;-71
2023/04/26 14:16:35;;;;;;;5.80;2.60;;;27.60;45.70;;;;;;4928892;29;20095;-71
2023/04/26 14:19:01;;;;;;;7.65;3.10;;;28.10;45.60;;;;;;4928060;29;20044;-68
2023/04/26 14:21:27;;;;;;;9.10;2.50;;;28.70;46.20;;;;;;4912166;29;20051;-68
2023/04/26 14:23:55;;;;;;;7.60;2.63;;;29.90;46.80;;;;;;4911411;29;20024;-70
2023/04/26 14:26:24;;;;;;;5.10;2.08;;;30.80;44.00;;;;;;4928911;29;20040;-68
2023/04/26 14:28:51;;;;;;;4.90;2.38;;;31.50;43.10;;;;;;4927240;29;20179;-70
2023/04/26 14:31:17;;;;;;;6.43;2.03;;;32.20;43.00;;;;;;4928845;29;20035;-78
2023/04/26 14:33:43;;;;;;;7.50;2.58;;;32.20;42.40;;;;;;4929260;29;20036;-73
2023/04/26 14:36:09;;;;;;;7.00;2.20;;;31.80;42.10;;;;;;4933830;29;20071;-71
2023/04/26 14:38:36;;;;;;;4.45;2.42;;;31.40;43.10;;;;;;4947495;29;20032;-70
2023/04/26 14:41:02;;;;;;;4.68;1.88;;;33.20;41.80;;;;;;4947124;29;20027;-70
2023/04/26 14:43:28;;;;;;;4.32;1.90;;;32.80;41.00;;;;;;4947170;29;20034;-71
2023/04/26 14:45:54;;;;;;;5.28;2.13;;;32.90;40.80;;;;;;4946903;29;20083;-71
2023/04/26 14:48:19;;;;;;;3.80;2.05;;;33.10;43.50;;;;;;4947137;29;20269;-72
2023/04/26 14:50:45;;;;;;;4.40;2.10;;;32.20;41.50;;;;;;4946501;29;20030;-69
2023/04/26 14:53:11;;;;;;;6.13;1.92;;;31.40;42.30;;;;;;4947074;29;20313;-71
2023/04/26 14:55:37;;;;;;;9.00;2.47;;;31.10;43.10;;;;;;4946946;29;20028;-71
2023/04/26 14:58:03;;;;;;;3.85;1.85;;;31.50;42.40;;;;;;4947009;29;20028;-71
2023/04/26 15:00:29;;;;;;;6.03;2.45;;;31.10;42.30;;;;;;4946998;29;20332;-71
2023/04/26 15:02:55;;;;;;;4.63;2.25;;;31.50;42.50;;;;;;4935883;29;20052;-70
2023/04/26 15:05:22;;;;;;;4.50;1.83;;;32.50;43.40;;;;;;4946712;29;20039;-70
2023/04/26 15:07:48;;;;;;;5.22;1.98;;;33.40;40.60;;;;;;4946471;29;20044;-70
2023/04/26 15:10:14;;;;;;;4.60;2.00;;;33.40;40.60;;;;;;4946634;29;20054;-69
2023/04/26 15:12:40;;;;;;;4.47;1.73;;;31.90;41.20;;;;;;4946135;29;20411;-69
2023/04/26 15:15:06;;;;;;;3.92;1.98;;;30.80;41.80;;;;;;4946227;29;20036;-69
2023/04/26 15:17:32;;;;;;;5.93;2.05;;;30.50;43.30;;;;;;4929635;29;20294;-68
2023/04/26 15:20:00;;;;;;;5.35;2.22;;;29.60;43.10;;;;;;4946286;29;20058;-68
2023/04/26 15:22:25;;;;;;;4.38;1.95;;;28.90;43.50;;;;;;4946406;29;20222;-70
2023/04/26 15:24:51;;;;;;;5.97;2.17;;;28.10;43.50;;;;;;4945838;29;20042;-72
2023/04/26 15:27:17;;;;;;;5.57;2.72;;;26.50;44.70;;;;;;4946470;29;20046;-70
2023/04/26 15:29:43;;;;;;;3.88;2.00;;;25.50;46.00;;;;;;4945993;29;20019;-71
2023/04/26 15:32:09;;;;;;;5.35;2.20;;;24.40;47.20;;;;;;4946106;29;20115;-71
2023/04/26 15:34:39;;;;;;;7.13;2.40;;;25.10;48.10;;;;;;4929787;29;20039;-70
2023/04/26 15:37:05;;;;;;;6.78;2.40;;;27.30;45.20;;;;;;4939759;29;20198;-70
2023/04/26 15:39:31;;;;;;;5.65;2.38;;;28.90;45.50;;;;;;4929340;29;20032;-70
2023/04/26 15:41:57;;;;;;;5.55;2.60;;;30.40;43.10;;;;;;4946053;29;20317;-71
2023/04/26 15:44:23;;;;;;;5.00;2.10;;;30.80;42.10;;;;;;4946035;29;20059;-71
2023/04/26 15:46:49;;;;;;;5.43;1.98;;;31.60;41.50;;;;;;4945837;29;20238;-70
2023/04/26 15:49:14;;;;;;;4.38;2.17;;;32.00;43.50;;;;;;4929059;29;20044;-72
2023/04/26 15:51:40;;;;;;;4.32;1.80;;;33.00;41.20;;;;;;4945632;29;20035;-72
2023/04/26 15:54:06;;;;;;;5.63;2.00;;;33.30;41.40;;;;;;4945870;29;20322;-71
2023/04/26 15:56:32;;;;;;;5.28;2.00;;;32.90;41.70;;;;;;4940586;29;20035;-70
2023/04/26 15:58:58;;;;;;;5.18;2.05;;;32.40;40.90;;;;;;4926299;29;20111;-70
2023/04/26 16:01:23;;;;;;;6.28;2.00;;;32.80;41.40;;;;;;4928574;29;20024;-70
2023/04/26 16:03:49;;;;;;;4.07;1.67;;;32.40;41.70;;;;;;4940260;29;20369;-69
2023/04/26 16:06:15;;;;;;;4.38;1.98;;;32.20;41.20;;;;;;4945952;29;20042;-69
2023/04/26 16:08:41;;;;;;;6.70;2.30;;;32.30;40.70;;;;;;4945431;29;20063;-71
2023/04/26 16:11:06;;;;;;;5.43;2.30;;;30.90;41.30;;;;;;4945677;29;20054;-70
2023/04/26 16:13:33;;;;;;;5.45;2.00;;;28.40;42.90;;;;;;4945682;29;20178;-69
2023/04/26 16:15:58;;;;;;;4.28;1.90;;;26.40;45.50;;;;;;4945348;29;20039;-70
2023/04/26 16:18:24;;;;;;;4.30;1.70;;;24.80;47.10;;;;;;4945341;29;20188;-70
2023/04/26 16:20:50;;;;;;;4.75;2.08;;;24.40;47.10;;;;;;4944897;29;20039;-70
2023/04/26 16:23:16;;;;;;;6.03;2.10;;;24.30;46.80;;;;;;4945863;29;20047;-70
2023/04/26 16:25:42;;;;;;;6.55;2.20;;;23.20;48.70;;;;;;4945230;29;20296;-71
2023/04/26 16:28:11;;;;;;;6.22;2.30;;;22.30;49.20;;;;;;4945509;29;20055;-71
2023/04/26 16:30:37;;;;;;;8.70;2.90;;;21.40;52.80;;;;;;4945514;29;20253;-73
2023/04/26 16:33:08;;;;;;;3.83;2.10;;;20.80;51.20;;;;;;4923801;29;20372;-71
2023/04/26 16:35:35;;;;;;;6.30;2.55;;;20.30;53.00;;;;;;4927431;29;20229;-71
2023/04/26 16:38:01;;;;;;;6.35;2.50;;;19.80;52.70;;;;;;4945060;29;20039;-70
2023/04/26 16:40:27;;;;;;;6.60;2.40;;;19.70;53.40;;;;;;4945532;29;20080;-71
2023/04/26 16:42:53;;;;;;;7.75;2.20;;;20.00;54.20;;;;;;4945112;29;20336;-70
2023/04/26 16:45:19;;;;;;;12.57;2.30;;;20.00;54.50;;;;;;4945631;29;20036;-70
2023/04/26 16:47:44;;;;;;;5.10;1.90;;;19.90;53.60;;;;;;4944741;29;20039;-69
2023/04/26 16:50:10;;;;;;;5.65;2.00;;;20.60;53.30;;;;;;4928502;29;20042;-70
2023/04/26 16:52:36;;;;;;;4.35;1.58;;;21.40;52.90;;;;;;4948082;29;20044;-70
2023/04/26 16:55:02;;;;;;;7.10;2.78;;;21.60;53.60;;;;;;4947545;29;20213;-70
2023/04/26 16:57:28;;;;;;;6.13;2.22;;;21.30;51.20;;;;;;4946804;29;20035;-70
2023/04/26 16:59:54;;;;;;;7.43;2.03;;;20.70;51.50;;;;;;4937262;29;20024;-70
2023/04/26 17:02:20;;;;;;;5.47;2.17;;;19.90;53.50;;;;;;4934007;29;20103;-70
2023/04/26 17:04:46;;;;;;;7.43;2.50;;;19.10;54.60;;;;;;4942598;29;20036;-70
2023/04/26 17:07:11;;;;;;;7.20;2.45;;;18.80;56.60;;;;;;4930017;29;20063;-68
2023/04/26 17:09:38;;;;;;;5.07;2.60;;;18.60;55.70;;;;;;4929565;29;20030;-69
2023/04/26 17:12:06;;;;;;;4.22;2.25;;;18.10;56.20;;;;;;4939113;29;20034;-70
2023/04/26 17:14:31;;;;;;;5.70;1.92;;;17.80;57.50;;;;;;4932665;29;20040;-68
2023/04/26 17:16:57;;;;;;;6.68;2.35;;;17.60;58.60;;;;;;4929572;29;20592;-70
2023/04/26 17:19:23;;;;;;;5.50;2.28;;;17.20;57.90;;;;;;4929594;29;20032;-68
2023/04/26 17:21:49;;;;;;;6.00;1.95;;;16.80;58.50;;;;;;4929077;29;20028;-68
2023/04/26 17:24:16;;;;;;;5.28;2.15;;;16.50;59.50;;;;;;4912757;29;20087;-67
2023/04/26 17:26:42;;;;;;;6.13;1.95;;;16.30;60.60;;;;;;4929454;29;20203;-71
2023/04/26 17:29:08;;;;;;;4.82;2.03;;;16.30;60.50;;;;;;4938534;29;20113;-70
2023/04/26 17:31:33;;;;;;;7.85;2.17;;;16.30;61.10;;;;;;4948347;29;20103;-69
2023/04/26 17:33:59;;;;;;;5.43;2.30;;;16.10;61.00;;;;;;4919177;29;20092;-69
2023/04/26 17:36:25;;;;;;;6.13;2.17;;;15.90;60.60;;;;;;4947255;29;20035;-68
2023/04/26 17:38:51;;;;;;;4.65;2.17;;;15.70;60.80;;;;;;4947864;29;20027;-67
2023/04/26 17:41:17;;;;;;;7.28;2.15;;;15.40;61.60;;;;;;4939202;29;20091;-68
2023/04/26 17:43:45;;;;;;;4.47;2.20;;;15.10;63.00;;;;;;4928910;29;20032;-69
2023/04/26 17:46:11;;;;;;;5.38;1.88;;;15.00;63.20;;;;;;4929404;29;20051;-68
2023/04/26 17:48:38;;;;;;;5.68;2.33;;;15.20;63.40;;;;;;4925802;29;20302;-68
2023/04/26 17:51:05;;;;;;;5.35;1.98;;;15.10;62.90;;;;;;4948206;29;20043;-69